sensor_id;sensor_type;location;lat;lon;timestamp;temperature;humidity
65291;SHT30;51893;59.754;10.110;2022-11-23T00:01:39;2.13;87.95
65291;SHT30;51893;59.754;10.110;2022-11-23T00:04:08;2.12;87.97
65291;SHT30;51893;59.754;10.110;2022-11-23T00:06:40;2.12;88.01
65291;SHT30;51893;59.754;10.110;2022-11-23T00:09:09;2.12;88.01
65291;SHT30;51893;59.754;10.110;2022-11-23T00:11:38;2.13;88.05
65291;SHT30;51893;59.754;10.110;2022-11-23T00:14:06;2.14;88.00
65291;SHT30;51893;59.754;10.110;2022-11-23T00:16:36;2.16;87.99
65291;SHT30;51893;59.754;10.110;2022-11-23T00:19:05;2.16;88.00
65291;SHT30;51893;59.754;10.110;2022-11-23T00:21:33;2.14;87.93
65291;SHT30;51893;59.754;10.110;2022-11-23T00:24:01;2.18;87.89
65291;SHT30;51893;59.754;10.110;2022-11-23T00:26:36;2.18;87.81
65291;SHT30;51893;59.754;10.110;2022-11-23T00:29:04;2.18;87.80
65291;SHT30;51893;59.754;10.110;2022-11-23T00:31:32;2.16;87.74
65291;SHT30;51893;59.754;10.110;2022-11-23T00:34:01;2.15;87.79
65291;SHT30;51893;59.754;10.110;2022-11-23T00:36:30;2.13;87.81
65291;SHT30;51893;59.754;10.110;2022-11-23T00:38:58;2.13;87.81
65291;SHT30;51893;59.754;10.110;2022-11-23T00:41:26;2.13;87.84
65291;SHT30;51893;59.754;10.110;2022-11-23T00:43:55;2.13;87.90
65291;SHT30;51893;59.754;10.110;2022-11-23T00:46:24;2.13;87.91
65291;SHT30;51893;59.754;10.110;2022-11-23T00:48:56;2.12;88.00
65291;SHT30;51893;59.754;10.110;2022-11-23T00:51:28;2.11;88.03
65291;SHT30;51893;59.754;10.110;2022-11-23T00:54:02;2.13;88.10
65291;SHT30;51893;59.754;10.110;2022-11-23T00:56:34;2.16;88.01
65291;SHT30;51893;59.754;10.110;2022-11-23T00:59:02;2.20;88.00
65291;SHT30;51893;59.754;10.110;2022-11-23T01:01:32;2.19;87.89
65291;SHT30;51893;59.754;10.110;2022-11-23T01:04:06;2.19;87.99
65291;SHT30;51893;59.754;10.110;2022-11-23T01:06:38;2.20;88.00
65291;SHT30;51893;59.754;10.110;2022-11-23T01:09:11;2.17;87.98
65291;SHT30;51893;59.754;10.110;2022-11-23T01:11:44;2.17;88.04
65291;SHT30;51893;59.754;10.110;2022-11-23T01:14:13;2.15;88.02
65291;SHT30;51893;59.754;10.110;2022-11-23T01:16:44;2.17;88.10
65291;SHT30;51893;59.754;10.110;2022-11-23T01:19:13;2.18;88.09
65291;SHT30;51893;59.754;10.110;2022-11-23T01:21:46;2.17;88.11
65291;SHT30;51893;59.754;10.110;2022-11-23T01:24:16;2.15;88.11
65291;SHT30;51893;59.754;10.110;2022-11-23T01:26:50;2.16;88.17
65291;SHT30;51893;59.754;10.110;2022-11-23T01:29:20;2.17;88.17
65291;SHT30;51893;59.754;10.110;2022-11-23T01:31:50;2.20;88.20
65291;SHT30;51893;59.754;10.110;2022-11-23T01:34:21;2.26;88.27
65291;SHT30;51893;59.754;10.110;2022-11-23T01:36:49;2.26;88.20
65291;SHT30;51893;59.754;10.110;2022-11-23T01:39:17;2.27;88.19
65291;SHT30;51893;59.754;10.110;2022-11-23T01:41:46;2.29;88.16
65291;SHT30;51893;59.754;10.110;2022-11-23T01:44:26;2.29;88.10
65291;SHT30;51893;59.754;10.110;2022-11-23T01:47:04;2.30;88.06
65291;SHT30;51893;59.754;10.110;2022-11-23T01:49:36;2.32;88.02
65291;SHT30;51893;59.754;10.110;2022-11-23T01:52:10;2.32;87.99
65291;SHT30;51893;59.754;10.110;2022-11-23T01:54:48;2.31;87.95
65291;SHT30;51893;59.754;10.110;2022-11-23T01:57:22;2.31;87.87
65291;SHT30;51893;59.754;10.110;2022-11-23T02:00:04;2.34;87.90
65291;SHT30;51893;59.754;10.110;2022-11-23T02:02:35;2.38;87.88
65291;SHT30;51893;59.754;10.110;2022-11-23T02:05:08;2.40;87.59
65291;SHT30;51893;59.754;10.110;2022-11-23T02:07:41;2.43;87.39
65291;SHT30;51893;59.754;10.110;2022-11-23T02:10:09;2.43;87.29
65291;SHT30;51893;59.754;10.110;2022-11-23T02:12:37;2.44;87.20
65291;SHT30;51893;59.754;10.110;2022-11-23T02:15:05;2.44;87.13
65291;SHT30;51893;59.754;10.110;2022-11-23T02:17:36;2.45;87.19
65291;SHT30;51893;59.754;10.110;2022-11-23T02:20:13;2.47;87.08
65291;SHT30;51893;59.754;10.110;2022-11-23T02:25:53;2.47;86.90
65291;SHT30;51893;59.754;10.110;2022-11-23T02:28:44;2.48;86.91
65291;SHT30;51893;59.754;10.110;2022-11-23T02:31:21;2.46;86.81
65291;SHT30;51893;59.754;10.110;2022-11-23T02:33:50;2.46;86.71
65291;SHT30;51893;59.754;10.110;2022-11-23T02:36:30;2.46;86.72
65291;SHT30;51893;59.754;10.110;2022-11-23T02:39:10;2.45;86.73
65291;SHT30;51893;59.754;10.110;2022-11-23T02:41:45;2.44;86.80
65291;SHT30;51893;59.754;10.110;2022-11-23T02:44:28;2.45;86.73
65291;SHT30;51893;59.754;10.110;2022-11-23T02:46:57;2.43;86.52
65291;SHT30;51893;59.754;10.110;2022-11-23T02:49:26;2.45;86.31
65291;SHT30;51893;59.754;10.110;2022-11-23T02:51:54;2.49;86.23
65291;SHT30;51893;59.754;10.110;2022-11-23T02:54:22;2.52;86.30
65291;SHT30;51893;59.754;10.110;2022-11-23T02:56:50;2.54;86.31
65291;SHT30;51893;59.754;10.110;2022-11-23T02:59:18;2.54;86.35
65291;SHT30;51893;59.754;10.110;2022-11-23T03:01:48;2.53;86.40
65291;SHT30;51893;59.754;10.110;2022-11-23T03:04:16;2.48;86.60
65291;SHT30;51893;59.754;10.110;2022-11-23T03:06:52;2.46;86.83
65291;SHT30;51893;59.754;10.110;2022-11-23T03:09:21;2.45;86.84
65291;SHT30;51893;59.754;10.110;2022-11-23T03:11:51;2.45;86.99
65291;SHT30;51893;59.754;10.110;2022-11-23T03:14:20;2.42;87.09
65291;SHT30;51893;59.754;10.110;2022-11-23T03:16:50;2.42;87.17
65291;SHT30;51893;59.754;10.110;2022-11-23T03:19:19;2.45;86.96
65291;SHT30;51893;59.754;10.110;2022-11-23T03:21:47;2.50;86.71
65291;SHT30;51893;59.754;10.110;2022-11-23T03:24:15;2.49;86.68
65291;SHT30;51893;59.754;10.110;2022-11-23T03:26:44;2.49;86.80
65291;SHT30;51893;59.754;10.110;2022-11-23T03:29:13;2.48;86.97
65291;SHT30;51893;59.754;10.110;2022-11-23T03:31:41;2.49;86.93
65291;SHT30;51893;59.754;10.110;2022-11-23T03:34:09;2.43;86.90
65291;SHT30;51893;59.754;10.110;2022-11-23T03:36:37;2.40;86.91
65291;SHT30;51893;59.754;10.110;2022-11-23T03:39:06;2.38;86.84
65291;SHT30;51893;59.754;10.110;2022-11-23T03:41:34;2.44;86.76
65291;SHT30;51893;59.754;10.110;2022-11-23T03:44:02;2.42;86.82
65291;SHT30;51893;59.754;10.110;2022-11-23T03:46:30;2.41;86.81
65291;SHT30;51893;59.754;10.110;2022-11-23T03:49:01;2.41;86.72
65291;SHT30;51893;59.754;10.110;2022-11-23T03:51:30;2.40;86.70
65291;SHT30;51893;59.754;10.110;2022-11-23T03:54:00;2.39;86.70
65291;SHT30;51893;59.754;10.110;2022-11-23T03:56:30;2.37;86.69
65291;SHT30;51893;59.754;10.110;2022-11-23T03:58:58;2.35;86.75
65291;SHT30;51893;59.754;10.110;2022-11-23T04:01:27;2.30;86.80
65291;SHT30;51893;59.754;10.110;2022-11-23T04:03:55;2.25;86.87
65291;SHT30;51893;59.754;10.110;2022-11-23T04:06:23;2.22;87.00
65291;SHT30;51893;59.754;10.110;2022-11-23T04:08:54;2.22;87.18
65291;SHT30;51893;59.754;10.110;2022-11-23T04:11:28;2.25;87.16
65291;SHT30;51893;59.754;10.110;2022-11-23T04:13:56;2.22;87.11
65291;SHT30;51893;59.754;10.110;2022-11-23T04:16:25;2.18;87.32
65291;SHT30;51893;59.754;10.110;2022-11-23T04:18:53;2.22;87.40
65291;SHT30;51893;59.754;10.110;2022-11-23T04:21:20;2.22;87.44
65291;SHT30;51893;59.754;10.110;2022-11-23T04:23:48;2.19;87.50
65291;SHT30;51893;59.754;10.110;2022-11-23T04:26:16;2.15;87.60
65291;SHT30;51893;59.754;10.110;2022-11-23T04:28:44;2.15;87.73
65291;SHT30;51893;59.754;10.110;2022-11-23T04:31:13;2.16;87.80
65291;SHT30;51893;59.754;10.110;2022-11-23T04:33:42;2.18;87.76
65291;SHT30;51893;59.754;10.110;2022-11-23T04:36:13;2.20;87.77
65291;SHT30;51893;59.754;10.110;2022-11-23T04:38:40;2.22;87.65
65291;SHT30;51893;59.754;10.110;2022-11-23T04:41:08;2.18;87.67
65291;SHT30;51893;59.754;10.110;2022-11-23T04:43:38;2.16;87.70
65291;SHT30;51893;59.754;10.110;2022-11-23T04:46:05;2.14;87.70
65291;SHT30;51893;59.754;10.110;2022-11-23T04:48:34;2.10;87.78
65291;SHT30;51893;59.754;10.110;2022-11-23T04:51:02;2.08;87.86
65291;SHT30;51893;59.754;10.110;2022-11-23T04:53:32;2.11;87.94
65291;SHT30;51893;59.754;10.110;2022-11-23T04:56:00;2.08;87.90
65291;SHT30;51893;59.754;10.110;2022-11-23T04:58:28;2.09;88.03
65291;SHT30;51893;59.754;10.110;2022-11-23T05:01:01;2.13;88.10
65291;SHT30;51893;59.754;10.110;2022-11-23T05:03:31;2.15;88.06
65291;SHT30;51893;59.754;10.110;2022-11-23T05:06:02;2.15;88.12
65291;SHT30;51893;59.754;10.110;2022-11-23T05:08:31;2.13;88.15
65291;SHT30;51893;59.754;10.110;2022-11-23T05:10:59;2.15;88.28
65291;SHT30;51893;59.754;10.110;2022-11-23T05:13:27;2.15;88.23
65291;SHT30;51893;59.754;10.110;2022-11-23T05:15:56;2.18;88.28
65291;SHT30;51893;59.754;10.110;2022-11-23T05:18:24;2.24;88.28
65291;SHT30;51893;59.754;10.110;2022-11-23T05:20:52;2.27;88.14
65291;SHT30;51893;59.754;10.110;2022-11-23T05:23:21;2.27;88.12
65291;SHT30;51893;59.754;10.110;2022-11-23T05:25:52;2.29;88.10
65291;SHT30;51893;59.754;10.110;2022-11-23T05:28:20;2.26;87.98
65291;SHT30;51893;59.754;10.110;2022-11-23T05:31:08;2.18;88.01
65291;SHT30;51893;59.754;10.110;2022-11-23T05:33:36;2.12;88.14
65291;SHT30;51893;59.754;10.110;2022-11-23T05:36:04;2.09;88.27
65291;SHT30;51893;59.754;10.110;2022-11-23T05:38:33;2.09;88.30
65291;SHT30;51893;59.754;10.110;2022-11-23T05:41:01;2.12;88.44
65291;SHT30;51893;59.754;10.110;2022-11-23T05:43:29;2.17;88.50
65291;SHT30;51893;59.754;10.110;2022-11-23T05:45:58;2.18;88.46
65291;SHT30;51893;59.754;10.110;2022-11-23T05:48:27;2.15;88.44
65291;SHT30;51893;59.754;10.110;2022-11-23T05:50:55;2.15;88.42
65291;SHT30;51893;59.754;10.110;2022-11-23T05:53:31;2.17;88.54
65291;SHT30;51893;59.754;10.110;2022-11-23T05:56:00;2.19;88.69
65291;SHT30;51893;59.754;10.110;2022-11-23T05:58:29;2.21;88.64
65291;SHT30;51893;59.754;10.110;2022-11-23T06:00:59;2.20;88.52
65291;SHT30;51893;59.754;10.110;2022-11-23T06:03:28;2.25;88.56
65291;SHT30;51893;59.754;10.110;2022-11-23T06:05:58;2.30;88.59
65291;SHT30;51893;59.754;10.110;2022-11-23T06:08:26;2.38;88.51
65291;SHT30;51893;59.754;10.110;2022-11-23T06:10:54;2.40;88.40
65291;SHT30;51893;59.754;10.110;2022-11-23T06:13:22;2.43;88.39
65291;SHT30;51893;59.754;10.110;2022-11-23T06:15:49;2.45;88.30
65291;SHT30;51893;59.754;10.110;2022-11-23T06:18:19;2.45;88.36
65291;SHT30;51893;59.754;10.110;2022-11-23T06:20:47;2.48;88.37
65291;SHT30;51893;59.754;10.110;2022-11-23T06:23:15;2.51;88.24
65291;SHT30;51893;59.754;10.110;2022-11-23T06:25:42;2.52;88.18
65291;SHT30;51893;59.754;10.110;2022-11-23T06:28:10;2.56;88.10
65291;SHT30;51893;59.754;10.110;2022-11-23T06:30:38;2.58;88.07
65291;SHT30;51893;59.754;10.110;2022-11-23T06:33:08;2.57;88.00
65291;SHT30;51893;59.754;10.110;2022-11-23T06:35:37;2.57;87.95
65291;SHT30;51893;59.754;10.110;2022-11-23T06:38:05;2.54;87.90
65291;SHT30;51893;59.754;10.110;2022-11-23T06:40:34;2.51;87.90
65291;SHT30;51893;59.754;10.110;2022-11-23T06:43:04;2.51;87.94
65291;SHT30;51893;59.754;10.110;2022-11-23T06:45:31;2.47;87.95
65291;SHT30;51893;59.754;10.110;2022-11-23T06:48:08;2.45;88.06
65291;SHT30;51893;59.754;10.110;2022-11-23T06:50:36;2.43;88.01
65291;SHT30;51893;59.754;10.110;2022-11-23T06:53:08;2.41;87.98
65291;SHT30;51893;59.754;10.110;2022-11-23T06:55:38;2.40;88.04
65291;SHT30;51893;59.754;10.110;2022-11-23T06:58:07;2.37;88.09
65291;SHT30;51893;59.754;10.110;2022-11-23T07:00:37;2.35;88.10
65291;SHT30;51893;59.754;10.110;2022-11-23T07:03:10;2.34;88.10
65291;SHT30;51893;59.754;10.110;2022-11-23T07:05:49;2.35;88.09
65291;SHT30;51893;59.754;10.110;2022-11-23T07:08:18;2.36;88.09
65291;SHT30;51893;59.754;10.110;2022-11-23T07:10:48;2.38;88.14
65291;SHT30;51893;59.754;10.110;2022-11-23T07:13:16;2.39;88.26
65291;SHT30;51893;59.754;10.110;2022-11-23T07:15:46;2.36;88.29
65291;SHT30;51893;59.754;10.110;2022-11-23T07:18:16;2.34;88.42
65291;SHT30;51893;59.754;10.110;2022-11-23T07:20:46;2.37;88.43
65291;SHT30;51893;59.754;10.110;2022-11-23T07:23:14;2.38;88.49
65291;SHT30;51893;59.754;10.110;2022-11-23T07:25:41;2.43;88.51
65291;SHT30;51893;59.754;10.110;2022-11-23T07:28:10;2.46;88.41
65291;SHT30;51893;59.754;10.110;2022-11-23T07:30:41;2.47;88.35
65291;SHT30;51893;59.754;10.110;2022-11-23T07:33:10;2.47;88.29
65291;SHT30;51893;59.754;10.110;2022-11-23T07:35:40;2.46;88.25
65291;SHT30;51893;59.754;10.110;2022-11-23T07:38:09;2.50;88.28
65291;SHT30;51893;59.754;10.110;2022-11-23T07:40:39;2.54;88.19
65291;SHT30;51893;59.754;10.110;2022-11-23T07:43:08;2.56;88.10
65291;SHT30;51893;59.754;10.110;2022-11-23T07:45:37;2.60;88.04
65291;SHT30;51893;59.754;10.110;2022-11-23T07:48:06;2.59;88.03
65291;SHT30;51893;59.754;10.110;2022-11-23T07:50:37;2.55;88.03
65291;SHT30;51893;59.754;10.110;2022-11-23T07:53:11;2.56;88.10
65291;SHT30;51893;59.754;10.110;2022-11-23T07:55:39;2.59;88.09
65291;SHT30;51893;59.754;10.110;2022-11-23T07:58:09;2.61;88.10
65291;SHT30;51893;59.754;10.110;2022-11-23T08:00:37;2.61;88.15
65291;SHT30;51893;59.754;10.110;2022-11-23T08:03:08;2.60;88.19
65291;SHT30;51893;59.754;10.110;2022-11-23T08:05:58;2.54;88.20
65291;SHT30;51893;59.754;10.110;2022-11-23T08:08:25;2.50;88.21
65291;SHT30;51893;59.754;10.110;2022-11-23T08:10:56;2.52;88.21
65291;SHT30;51893;59.754;10.110;2022-11-23T08:13:25;2.55;88.19
65291;SHT30;51893;59.754;10.110;2022-11-23T08:15:55;2.55;88.13
65291;SHT30;51893;59.754;10.110;2022-11-23T08:18:24;2.53;88.17
65291;SHT30;51893;59.754;10.110;2022-11-23T08:20:52;2.51;88.16
65291;SHT30;51893;59.754;10.110;2022-11-23T08:23:22;2.50;88.20
65291;SHT30;51893;59.754;10.110;2022-11-23T08:25:54;2.48;88.20
65291;SHT30;51893;59.754;10.110;2022-11-23T08:28:22;2.46;88.12
65291;SHT30;51893;59.754;10.110;2022-11-23T08:30:51;2.48;88.10
65291;SHT30;51893;59.754;10.110;2022-11-23T08:33:19;2.48;88.02
65291;SHT30;51893;59.754;10.110;2022-11-23T08:35:48;2.45;88.00
65291;SHT30;51893;59.754;10.110;2022-11-23T08:38:16;2.44;88.01
65291;SHT30;51893;59.754;10.110;2022-11-23T08:40:44;2.41;88.01
65291;SHT30;51893;59.754;10.110;2022-11-23T08:43:13;2.38;88.05
65291;SHT30;51893;59.754;10.110;2022-11-23T08:45:41;2.36;88.10
65291;SHT30;51893;59.754;10.110;2022-11-23T08:48:09;2.36;88.10
65291;SHT30;51893;59.754;10.110;2022-11-23T08:50:37;2.36;88.10
65291;SHT30;51893;59.754;10.110;2022-11-23T08:53:07;2.36;88.10
65291;SHT30;51893;59.754;10.110;2022-11-23T08:55:38;2.35;88.10
65291;SHT30;51893;59.754;10.110;2022-11-23T08:58:06;2.35;88.18
65291;SHT30;51893;59.754;10.110;2022-11-23T09:00:40;2.34;88.20
65291;SHT30;51893;59.754;10.110;2022-11-23T09:03:08;2.31;88.21
65291;SHT30;51893;59.754;10.110;2022-11-23T09:05:36;2.34;88.30
65291;SHT30;51893;59.754;10.110;2022-11-23T09:08:07;2.36;88.31
65291;SHT30;51893;59.754;10.110;2022-11-23T09:10:39;2.36;88.28
65291;SHT30;51893;59.754;10.110;2022-11-23T09:13:08;2.32;88.31
65291;SHT30;51893;59.754;10.110;2022-11-23T09:15:36;2.29;88.33
65291;SHT30;51893;59.754;10.110;2022-11-23T09:18:05;2.26;88.40
65291;SHT30;51893;59.754;10.110;2022-11-23T09:20:33;2.28;88.47
65291;SHT30;51893;59.754;10.110;2022-11-23T09:23:01;2.33;88.50
65291;SHT30;51893;59.754;10.110;2022-11-23T09:25:30;2.35;88.50
65291;SHT30;51893;59.754;10.110;2022-11-23T09:27:59;2.37;88.59
65291;SHT30;51893;59.754;10.110;2022-11-23T09:30:28;2.37;88.60
65291;SHT30;51893;59.754;10.110;2022-11-23T09:32:59;2.37;88.67
65291;SHT30;51893;59.754;10.110;2022-11-23T09:35:28;2.41;88.77
65291;SHT30;51893;59.754;10.110;2022-11-23T09:37:58;2.43;88.70
65291;SHT30;51893;59.754;10.110;2022-11-23T09:40:29;2.41;88.61
65291;SHT30;51893;59.754;10.110;2022-11-23T09:46:24;2.36;88.62
65291;SHT30;51893;59.754;10.110;2022-11-23T09:49:14;2.36;88.56
65291;SHT30;51893;59.754;10.110;2022-11-23T09:51:49;2.37;88.50
65291;SHT30;51893;59.754;10.110;2022-11-23T09:54:25;2.38;88.45
65291;SHT30;51893;59.754;10.110;2022-11-23T09:57:02;2.38;88.41
65291;SHT30;51893;59.754;10.110;2022-11-23T09:59:37;2.36;88.45
65291;SHT30;51893;59.754;10.110;2022-11-23T10:02:21;2.34;88.50
65291;SHT30;51893;59.754;10.110;2022-11-23T10:04:55;2.33;88.51
65291;SHT30;51893;59.754;10.110;2022-11-23T10:10:17;2.40;88.50
65291;SHT30;51893;59.754;10.110;2022-11-23T10:19:11;2.43;88.50
65291;SHT30;51893;59.754;10.110;2022-11-23T10:22:17;2.39;88.52
65291;SHT30;51893;59.754;10.110;2022-11-23T10:25:24;2.39;88.54
65291;SHT30;51893;59.754;10.110;2022-11-23T10:28:11;2.45;88.58
65291;SHT30;51893;59.754;10.110;2022-11-23T10:30:48;2.50;88.59
65291;SHT30;51893;59.754;10.110;2022-11-23T10:33:38;2.52;88.50
65291;SHT30;51893;59.754;10.110;2022-11-23T10:36:18;2.55;88.55
65291;SHT30;51893;59.754;10.110;2022-11-23T10:38:48;2.56;88.50
65291;SHT30;51893;59.754;10.110;2022-11-23T10:41:24;2.56;88.40
65291;SHT30;51893;59.754;10.110;2022-11-23T10:54:51;2.59;88.23
65291;SHT30;51893;59.754;10.110;2022-11-23T11:00:16;2.56;88.23
65291;SHT30;51893;59.754;10.110;2022-11-23T11:02:47;2.52;88.24
65291;SHT30;51893;59.754;10.110;2022-11-23T11:08:27;2.56;88.25
65291;SHT30;51893;59.754;10.110;2022-11-23T11:18:58;2.64;88.30
65291;SHT30;51893;59.754;10.110;2022-11-23T11:21:49;2.63;88.28
65291;SHT30;51893;59.754;10.110;2022-11-23T11:24:18;2.64;88.25
65291;SHT30;51893;59.754;10.110;2022-11-23T11:27:11;2.65;88.14
65291;SHT30;51893;59.754;10.110;2022-11-23T11:35:25;2.61;88.20
65291;SHT30;51893;59.754;10.110;2022-11-23T11:38:03;2.58;88.20
65291;SHT30;51893;59.754;10.110;2022-11-23T11:40:45;2.55;88.20
65291;SHT30;51893;59.754;10.110;2022-11-23T11:43:24;2.55;88.27
65291;SHT30;51893;59.754;10.110;2022-11-23T11:46:11;2.59;88.35
65291;SHT30;51893;59.754;10.110;2022-11-23T11:49:08;2.56;88.30
65291;SHT30;51893;59.754;10.110;2022-11-23T11:51:45;2.50;88.33
65291;SHT30;51893;59.754;10.110;2022-11-23T11:57:50;2.44;88.54
65291;SHT30;51893;59.754;10.110;2022-11-23T12:00:09;2.48;88.60
65291;SHT30;51893;59.754;10.110;2022-11-23T12:02:59;2.52;88.61
65291;SHT30;51893;59.754;10.110;2022-11-23T12:05:47;2.57;88.53
65291;SHT30;51893;59.754;10.110;2022-11-23T12:11:10;2.60;88.40
65291;SHT30;51893;59.754;10.110;2022-11-23T12:13:42;2.59;88.40
65291;SHT30;51893;59.754;10.110;2022-11-23T12:16:21;2.59;88.42
65291;SHT30;51893;59.754;10.110;2022-11-23T12:19:52;2.62;88.50
65291;SHT30;51893;59.754;10.110;2022-11-23T12:26:20;2.64;88.37
65291;SHT30;51893;59.754;10.110;2022-11-23T12:41:22;2.60;88.41
65291;SHT30;51893;59.754;10.110;2022-11-23T12:50:37;2.52;88.40
65291;SHT30;51893;59.754;10.110;2022-11-23T12:59:42;2.42;88.60
65291;SHT30;51893;59.754;10.110;2022-11-23T13:05:28;2.46;88.70
65291;SHT30;51893;59.754;10.110;2022-11-23T13:21:13;2.45;88.74
65291;SHT30;51893;59.754;10.110;2022-11-23T13:23:55;2.42;88.79
65291;SHT30;51893;59.754;10.110;2022-11-23T13:26:28;2.42;88.80
65291;SHT30;51893;59.754;10.110;2022-11-23T13:29:01;2.46;88.78
65291;SHT30;51893;59.754;10.110;2022-11-23T13:32:50;2.44;88.68
65291;SHT30;51893;59.754;10.110;2022-11-23T13:35:58;2.39;88.60
65291;SHT30;51893;59.754;10.110;2022-11-23T13:38:37;2.38;88.64
65291;SHT30;51893;59.754;10.110;2022-11-23T13:49:40;2.35;88.60
65291;SHT30;51893;59.754;10.110;2022-11-23T13:54:58;2.32;88.70
65291;SHT30;51893;59.754;10.110;2022-11-23T13:57:36;2.32;88.79
65291;SHT30;51893;59.754;10.110;2022-11-23T14:12:37;2.47;88.67
65291;SHT30;51893;59.754;10.110;2022-11-23T14:15:24;2.52;88.57
65291;SHT30;51893;59.754;10.110;2022-11-23T14:36:42;2.57;88.34
65291;SHT30;51893;59.754;10.110;2022-11-23T14:42:41;2.57;88.29
65291;SHT30;51893;59.754;10.110;2022-11-23T14:45:17;2.60;88.26
65291;SHT30;51893;59.754;10.110;2022-11-23T14:47:49;2.63;88.20
65291;SHT30;51893;59.754;10.110;2022-11-23T14:50:26;2.66;88.14
65291;SHT30;51893;59.754;10.110;2022-11-23T14:52:56;2.67;88.11
65291;SHT30;51893;59.754;10.110;2022-11-23T14:55:28;2.67;88.06
65291;SHT30;51893;59.754;10.110;2022-11-23T14:57:58;2.65;88.05
65291;SHT30;51893;59.754;10.110;2022-11-23T15:00:34;2.64;88.06
65291;SHT30;51893;59.754;10.110;2022-11-23T15:03:17;2.65;88.05
65291;SHT30;51893;59.754;10.110;2022-11-23T15:06:13;2.70;87.92
65291;SHT30;51893;59.754;10.110;2022-11-23T15:08:47;2.74;87.78
65291;SHT30;51893;59.754;10.110;2022-11-23T15:11:30;2.73;87.78
65291;SHT30;51893;59.754;10.110;2022-11-23T15:14:16;2.74;87.72
65291;SHT30;51893;59.754;10.110;2022-11-23T15:16:52;2.73;87.70
65291;SHT30;51893;59.754;10.110;2022-11-23T15:19:27;2.75;87.66
65291;SHT30;51893;59.754;10.110;2022-11-23T15:21:56;2.78;87.58
65291;SHT30;51893;59.754;10.110;2022-11-23T15:24:28;2.80;87.52
65291;SHT30;51893;59.754;10.110;2022-11-23T15:27:02;2.80;87.41
65291;SHT30;51893;59.754;10.110;2022-11-23T15:29:39;2.81;87.39
65291;SHT30;51893;59.754;10.110;2022-11-23T15:32:30;2.82;87.23
65291;SHT30;51893;59.754;10.110;2022-11-23T15:35:03;2.84;87.09
65291;SHT30;51893;59.754;10.110;2022-11-23T15:37:47;2.87;87.11
65291;SHT30;51893;59.754;10.110;2022-11-23T15:40:18;2.92;87.01
65291;SHT30;51893;59.754;10.110;2022-11-23T15:42:52;2.94;86.92
65291;SHT30;51893;59.754;10.110;2022-11-23T15:48:18;2.98;86.77
65291;SHT30;51893;59.754;10.110;2022-11-23T15:53:48;2.94;86.60
65291;SHT30;51893;59.754;10.110;2022-11-23T15:56:37;2.94;86.65
65291;SHT30;51893;59.754;10.110;2022-11-23T15:59:26;2.97;86.65
65291;SHT30;51893;59.754;10.110;2022-11-23T16:02:03;3.01;86.53
65291;SHT30;51893;59.754;10.110;2022-11-23T16:04:35;3.02;86.49
65291;SHT30;51893;59.754;10.110;2022-11-23T16:07:27;3.00;86.41
65291;SHT30;51893;59.754;10.110;2022-11-23T16:12:51;2.97;86.35
65291;SHT30;51893;59.754;10.110;2022-11-23T16:18:17;3.01;86.34
65291;SHT30;51893;59.754;10.110;2022-11-23T16:23:27;3.04;86.11
65291;SHT30;51893;59.754;10.110;2022-11-23T16:26:14;3.01;86.15
65291;SHT30;51893;59.754;10.110;2022-11-23T16:28:52;3.03;86.20
65291;SHT30;51893;59.754;10.110;2022-11-23T16:31:29;3.04;86.27
65291;SHT30;51893;59.754;10.110;2022-11-23T16:34:09;3.03;86.30
65291;SHT30;51893;59.754;10.110;2022-11-23T16:36:44;3.07;86.29
65291;SHT30;51893;59.754;10.110;2022-11-23T16:39:14;3.07;86.31
65291;SHT30;51893;59.754;10.110;2022-11-23T16:41:45;3.04;86.24
65291;SHT30;51893;59.754;10.110;2022-11-23T16:44:13;3.07;86.18
65291;SHT30;51893;59.754;10.110;2022-11-23T16:46:45;3.07;86.19
65291;SHT30;51893;59.754;10.110;2022-11-23T16:49:16;3.06;86.16
65291;SHT30;51893;59.754;10.110;2022-11-23T16:51:52;3.06;86.04
65291;SHT30;51893;59.754;10.110;2022-11-23T16:54:25;3.08;86.00
65291;SHT30;51893;59.754;10.110;2022-11-23T16:56:53;3.10;85.87
65291;SHT30;51893;59.754;10.110;2022-11-23T16:59:21;3.07;85.95
65291;SHT30;51893;59.754;10.110;2022-11-23T17:01:52;3.06;85.99
65291;SHT30;51893;59.754;10.110;2022-11-23T17:04:26;3.07;85.99
65291;SHT30;51893;59.754;10.110;2022-11-23T17:06:55;3.11;85.82
65291;SHT30;51893;59.754;10.110;2022-11-23T17:09:24;3.12;85.72
65291;SHT30;51893;59.754;10.110;2022-11-23T17:11:55;3.13;85.72
65291;SHT30;51893;59.754;10.110;2022-11-23T17:14:23;3.10;85.71
65291;SHT30;51893;59.754;10.110;2022-11-23T17:16:56;3.08;85.74
65291;SHT30;51893;59.754;10.110;2022-11-23T17:19:32;3.08;85.83
65291;SHT30;51893;59.754;10.110;2022-11-23T17:22:01;3.12;85.82
65291;SHT30;51893;59.754;10.110;2022-11-23T17:24:29;3.13;85.86
65291;SHT30;51893;59.754;10.110;2022-11-23T17:26:59;3.12;85.88
65291;SHT30;51893;59.754;10.110;2022-11-23T17:29:28;3.15;85.80
65291;SHT30;51893;59.754;10.110;2022-11-23T17:32:03;3.15;85.80
65291;SHT30;51893;59.754;10.110;2022-11-23T17:34:37;3.11;85.74
65291;SHT30;51893;59.754;10.110;2022-11-23T17:37:14;3.09;85.74
65291;SHT30;51893;59.754;10.110;2022-11-23T17:39:47;3.11;85.60
65291;SHT30;51893;59.754;10.110;2022-11-23T17:42:17;3.11;85.60
65291;SHT30;51893;59.754;10.110;2022-11-23T17:44:47;3.10;85.67
65291;SHT30;51893;59.754;10.110;2022-11-23T17:47:20;3.11;85.72
65291;SHT30;51893;59.754;10.110;2022-11-23T17:49:57;3.09;85.55
65291;SHT30;51893;59.754;10.110;2022-11-23T17:52:29;3.08;85.45
65291;SHT30;51893;59.754;10.110;2022-11-23T17:54:57;3.10;85.39
65291;SHT30;51893;59.754;10.110;2022-11-23T17:57:28;3.10;85.36
65291;SHT30;51893;59.754;10.110;2022-11-23T17:59:56;3.08;85.48
65291;SHT30;51893;59.754;10.110;2022-11-23T18:02:30;3.09;85.49
65291;SHT30;51893;59.754;10.110;2022-11-23T18:04:58;3.06;85.40
65291;SHT30;51893;59.754;10.110;2022-11-23T18:07:28;3.09;85.44
65291;SHT30;51893;59.754;10.110;2022-11-23T18:09:57;3.08;85.55
65291;SHT30;51893;59.754;10.110;2022-11-23T18:12:26;3.08;85.56
65291;SHT30;51893;59.754;10.110;2022-11-23T18:14:56;3.09;85.60
65291;SHT30;51893;59.754;10.110;2022-11-23T18:17:24;3.09;85.51
65291;SHT30;51893;59.754;10.110;2022-11-23T18:19:56;3.08;85.48
65291;SHT30;51893;59.754;10.110;2022-11-23T18:22:24;3.08;85.39
65291;SHT30;51893;59.754;10.110;2022-11-23T18:24:53;3.09;85.29
65291;SHT30;51893;59.754;10.110;2022-11-23T18:27:26;3.10;85.28
65291;SHT30;51893;59.754;10.110;2022-11-23T18:29:55;3.10;85.18
65291;SHT30;51893;59.754;10.110;2022-11-23T18:32:24;3.09;85.21
65291;SHT30;51893;59.754;10.110;2022-11-23T18:34:53;3.09;85.13
65291;SHT30;51893;59.754;10.110;2022-11-23T18:37:23;3.09;85.12
65291;SHT30;51893;59.754;10.110;2022-11-23T18:39:52;3.08;85.14
65291;SHT30;51893;59.754;10.110;2022-11-23T18:42:22;3.08;85.17